sensor_id;sensor_type;location;lat;lon;timestamp;P1;durP1;ratioP1;P2;durP2;ratioP2
1410;SDS011;700;51.906;8.404;2023-07-28T00:00:03;12.50;;;11.40;;
1410;SDS011;700;51.906;8.404;2023-07-28T00:05:06;12.13;;;11.03;;
1410;SDS011;700;51.906;8.404;2023-07-28T00:10:10;13.03;;;11.70;;
1410;SDS011;700;51.906;8.404;2023-07-28T00:15:15;12.13;;;11.03;;
1410;SDS011;700;51.906;8.404;2023-07-28T00:20:17;13.80;;;11.30;;
1410;SDS011;700;51.906;8.404;2023-07-28T00:25:18;11.50;;;10.50;;
1410;SDS011;700;51.906;8.404;2023-07-28T00:30:18;11.27;;;10.20;;
1410;SDS011;700;51.906;8.404;2023-07-28T00:35:19;10.93;;;9.93;;
1410;SDS011;700;51.906;8.404;2023-07-28T00:40:21;10.73;;;8.83;;
1410;SDS011;700;51.906;8.404;2023-07-28T00:45:22;10.53;;;9.43;;
1410;SDS011;700;51.906;8.404;2023-07-28T00:50:26;9.87;;;8.87;;
1410;SDS011;700;51.906;8.404;2023-07-28T00:55:32;9.67;;;7.80;;
1410;SDS011;700;51.906;8.404;2023-07-28T01:00:35;7.90;;;7.10;;
1410;SDS011;700;51.906;8.404;2023-07-28T01:11:16;7.03;;;6.20;;
1410;SDS011;700;51.906;8.404;2023-07-28T01:16:17;5.90;;;5.40;;
1410;SDS011;700;51.906;8.404;2023-07-28T01:21:22;5.70;;;5.20;;
1410;SDS011;700;51.906;8.404;2023-07-28T01:26:30;4.77;;;4.37;;
1410;SDS011;700;51.906;8.404;2023-07-28T01:31:33;5.63;;;5.13;;
1410;SDS011;700;51.906;8.404;2023-07-28T01:36:34;4.83;;;4.43;;
1410;SDS011;700;51.906;8.404;2023-07-28T01:41:35;4.30;;;3.90;;
1410;SDS011;700;51.906;8.404;2023-07-28T01:46:36;4.87;;;4.43;;
1410;SDS011;700;51.906;8.404;2023-07-28T01:51:39;3.70;;;3.40;;
1410;SDS011;700;51.906;8.404;2023-07-28T01:56:40;4.27;;;3.90;;
1410;SDS011;700;51.906;8.404;2023-07-28T02:01:42;5.93;;;4.57;;
1410;SDS011;700;51.906;8.404;2023-07-28T02:06:48;5.00;;;4.50;;
1410;SDS011;700;51.906;8.404;2023-07-28T02:11:48;5.70;;;5.20;;
1410;SDS011;700;51.906;8.404;2023-07-28T02:16:51;6.73;;;6.03;;
1410;SDS011;700;51.906;8.404;2023-07-28T02:21:54;10.87;;;5.40;;
1410;SDS011;700;51.906;8.404;2023-07-28T02:26:55;6.70;;;5.90;;
1410;SDS011;700;51.906;8.404;2023-07-28T02:31:55;9.73;;;6.60;;
1410;SDS011;700;51.906;8.404;2023-07-28T02:36:57;7.10;;;6.40;;
1410;SDS011;700;51.906;8.404;2023-07-28T02:41:57;6.97;;;6.30;;
1410;SDS011;700;51.906;8.404;2023-07-28T02:46:58;8.23;;;6.63;;
1410;SDS011;700;51.906;8.404;2023-07-28T02:52:01;7.23;;;6.53;;
1410;SDS011;700;51.906;8.404;2023-07-28T02:57:03;8.03;;;7.33;;
1410;SDS011;700;51.906;8.404;2023-07-28T03:02:03;8.07;;;7.37;;
1410;SDS011;700;51.906;8.404;2023-07-28T03:07:06;8.23;;;7.40;;
1410;SDS011;700;51.906;8.404;2023-07-28T03:12:07;8.07;;;7.27;;
1410;SDS011;700;51.906;8.404;2023-07-28T03:17:08;9.60;;;8.67;;
1410;SDS011;700;51.906;8.404;2023-07-28T03:22:11;10.07;;;9.17;;
1410;SDS011;700;51.906;8.404;2023-07-28T03:27:11;12.37;;;10.50;;
1410;SDS011;700;51.906;8.404;2023-07-28T03:32:14;11.30;;;10.20;;
1410;SDS011;700;51.906;8.404;2023-07-28T03:37:17;12.33;;;11.03;;
1410;SDS011;700;51.906;8.404;2023-07-28T03:42:20;10.93;;;9.93;;
1410;SDS011;700;51.906;8.404;2023-07-28T03:47:21;10.67;;;9.30;;
1410;SDS011;700;51.906;8.404;2023-07-28T03:52:21;11.33;;;10.23;;
1410;SDS011;700;51.906;8.404;2023-07-28T03:57:24;9.27;;;8.37;;
1410;SDS011;700;51.906;8.404;2023-07-28T04:02:27;9.80;;;8.90;;
1410;SDS011;700;51.906;8.404;2023-07-28T04:07:30;10.47;;;8.50;;
1410;SDS011;700;51.906;8.404;2023-07-28T04:12:35;9.77;;;8.77;;
1410;SDS011;700;51.906;8.404;2023-07-28T04:17:38;9.67;;;8.77;;
1410;SDS011;700;51.906;8.404;2023-07-28T04:22:38;8.03;;;7.33;;
1410;SDS011;700;51.906;8.404;2023-07-28T04:27:41;8.10;;;7.33;;
1410;SDS011;700;51.906;8.404;2023-07-28T04:32:44;8.70;;;7.80;;
1410;SDS011;700;51.906;8.404;2023-07-28T04:37:47;9.43;;;8.63;;
1410;SDS011;700;51.906;8.404;2023-07-28T04:42:50;9.93;;;9.03;;
1410;SDS011;700;51.906;8.404;2023-07-28T04:47:53;10.00;;;8.63;;
1410;SDS011;700;51.906;8.404;2023-07-28T04:52:56;8.70;;;7.83;;
1410;SDS011;700;51.906;8.404;2023-07-28T04:57:57;8.07;;;7.37;;
1410;SDS011;700;51.906;8.404;2023-07-28T05:02:57;9.37;;;8.57;;
1410;SDS011;700;51.906;8.404;2023-07-28T05:07:58;9.30;;;8.50;;
1410;SDS011;700;51.906;8.404;2023-07-28T05:13:01;9.13;;;8.30;;
1410;SDS011;700;51.906;8.404;2023-07-28T05:18:06;9.27;;;8.37;;
1410;SDS011;700;51.906;8.404;2023-07-28T05:23:09;8.70;;;7.73;;
1410;SDS011;700;51.906;8.404;2023-07-28T05:28:12;9.20;;;8.30;;
1410;SDS011;700;51.906;8.404;2023-07-28T05:33:13;9.73;;;8.83;;
1410;SDS011;700;51.906;8.404;2023-07-28T05:38:13;8.93;;;8.13;;
1410;SDS011;700;51.906;8.404;2023-07-28T05:43:14;8.80;;;8.00;;
1410;SDS011;700;51.906;8.404;2023-07-28T05:48:17;11.43;;;8.83;;
1410;SDS011;700;51.906;8.404;2023-07-28T05:53:22;8.87;;;8.07;;
1410;SDS011;700;51.906;8.404;2023-07-28T05:58:24;9.50;;;8.70;;
1410;SDS011;700;51.906;8.404;2023-07-28T06:03:25;10.27;;;9.30;;
1410;SDS011;700;51.906;8.404;2023-07-28T06:08:29;14.30;;;9.00;;
1410;SDS011;700;51.906;8.404;2023-07-28T06:13:32;9.83;;;8.83;;
1410;SDS011;700;51.906;8.404;2023-07-28T06:18:33;9.93;;;8.80;;
1410;SDS011;700;51.906;8.404;2023-07-28T06:23:33;13.60;;;12.30;;
1410;SDS011;700;51.906;8.404;2023-07-28T06:28:34;12.20;;;11.10;;
1410;SDS011;700;51.906;8.404;2023-07-28T06:33:34;12.43;;;11.23;;
1410;SDS011;700;51.906;8.404;2023-07-28T06:38:36;14.13;;;12.73;;
1410;SDS011;700;51.906;8.404;2023-07-28T06:43:40;11.70;;;10.70;;
1410;SDS011;700;51.906;8.404;2023-07-28T06:48:41;13.50;;;12.40;;
1410;SDS011;700;51.906;8.404;2023-07-28T06:53:44;12.80;;;11.60;;
1410;SDS011;700;51.906;8.404;2023-07-28T06:58:45;13.70;;;12.37;;
1410;SDS011;700;51.906;8.404;2023-07-28T07:03:45;14.23;;;13.00;;
1410;SDS011;700;51.906;8.404;2023-07-28T07:08:48;13.83;;;12.60;;
1410;SDS011;700;51.906;8.404;2023-07-28T07:13:51;13.10;;;11.80;;
1410;SDS011;700;51.906;8.404;2023-07-28T07:18:56;12.70;;;11.57;;
1410;SDS011;700;51.906;8.404;2023-07-28T07:23:57;13.40;;;12.20;;
1410;SDS011;700;51.906;8.404;2023-07-28T07:28:57;13.07;;;11.80;;
1410;SDS011;700;51.906;8.404;2023-07-28T07:33:58;12.20;;;11.10;;
1410;SDS011;700;51.906;8.404;2023-07-28T07:39:01;12.60;;;11.30;;
1410;SDS011;700;51.906;8.404;2023-07-28T07:44:02;12.57;;;11.47;;
1410;SDS011;700;51.906;8.404;2023-07-28T07:49:03;11.27;;;10.27;;
1410;SDS011;700;51.906;8.404;2023-07-28T07:54:05;11.10;;;10.03;;
1410;SDS011;700;51.906;8.404;2023-07-28T07:59:11;11.40;;;10.30;;
1410;SDS011;700;51.906;8.404;2023-07-28T08:04:11;10.50;;;9.50;;
1410;SDS011;700;51.906;8.404;2023-07-28T08:09:14;9.27;;;8.50;;
1410;SDS011;700;51.906;8.404;2023-07-28T08:14:15;10.20;;;9.30;;
1410;SDS011;700;51.906;8.404;2023-07-28T08:19:18;9.13;;;8.33;;
1410;SDS011;700;51.906;8.404;2023-07-28T08:24:18;9.20;;;8.40;;
1410;SDS011;700;51.906;8.404;2023-07-28T08:29:20;8.80;;;8.00;;
1410;SDS011;700;51.906;8.404;2023-07-28T08:34:23;8.60;;;7.80;;
1410;SDS011;700;51.906;8.404;2023-07-28T08:39:24;10.57;;;9.60;;
1410;SDS011;700;51.906;8.404;2023-07-28T08:44:24;9.00;;;8.10;;
1410;SDS011;700;51.906;8.404;2023-07-28T08:49:27;7.83;;;7.13;;
1410;SDS011;700;51.906;8.404;2023-07-28T08:54:28;7.70;;;6.20;;
1410;SDS011;700;51.906;8.404;2023-07-28T08:59:31;7.33;;;6.17;;
1410;SDS011;700;51.906;8.404;2023-07-28T09:04:32;7.37;;;6.77;;
1410;SDS011;700;51.906;8.404;2023-07-28T09:09:35;8.40;;;7.70;;
1410;SDS011;700;51.906;8.404;2023-07-28T09:14:37;11.77;;;10.57;;
1410;SDS011;700;51.906;8.404;2023-07-28T09:24:54;10.73;;;6.53;;
1410;SDS011;700;51.906;8.404;2023-07-28T09:29:55;7.50;;;6.80;;
1410;SDS011;700;51.906;8.404;2023-07-28T09:35:09;7.43;;;6.80;;
1410;SDS011;700;51.906;8.404;2023-07-28T09:40:16;7.63;;;6.60;;
1410;SDS011;700;51.906;8.404;2023-07-28T09:45:21;6.97;;;6.40;;
1410;SDS011;700;51.906;8.404;2023-07-28T09:50:25;9.60;;;8.23;;
1410;SDS011;700;51.906;8.404;2023-07-28T09:55:31;7.30;;;6.70;;
1410;SDS011;700;51.906;8.404;2023-07-28T10:00:34;8.20;;;7.47;;
1410;SDS011;700;51.906;8.404;2023-07-28T10:05:38;7.43;;;6.83;;
1410;SDS011;700;51.906;8.404;2023-07-28T10:10:42;6.13;;;5.63;;
1410;SDS011;700;51.906;8.404;2023-07-28T10:15:45;6.53;;;5.93;;
1410;SDS011;700;51.906;8.404;2023-07-28T10:20:47;6.50;;;5.90;;
1410;SDS011;700;51.906;8.404;2023-07-28T10:25:56;6.30;;;5.70;;
1410;SDS011;700;51.906;8.404;2023-07-28T10:31:01;14.27;;;12.87;;
1410;SDS011;700;51.906;8.404;2023-07-28T10:41:22;11.13;;;10.13;;
1410;SDS011;700;51.906;8.404;2023-07-28T10:46:25;13.10;;;11.90;;
1410;SDS011;700;51.906;8.404;2023-07-28T10:51:29;18.03;;;16.33;;
1410;SDS011;700;51.906;8.404;2023-07-28T10:56:33;19.20;;;17.30;;
1410;SDS011;700;51.906;8.404;2023-07-28T11:01:38;20.00;;;18.13;;
1410;SDS011;700;51.906;8.404;2023-07-28T11:06:41;19.23;;;17.50;;
1410;SDS011;700;51.906;8.404;2023-07-28T11:11:45;19.50;;;17.60;;
1410;SDS011;700;51.906;8.404;2023-07-28T11:16:49;18.43;;;16.73;;
1410;SDS011;700;51.906;8.404;2023-07-28T11:21:49;17.90;;;16.30;;
1410;SDS011;700;51.906;8.404;2023-07-28T11:26:51;17.43;;;15.80;;
1410;SDS011;700;51.906;8.404;2023-07-28T11:31:54;15.70;;;14.37;;
1410;SDS011;700;51.906;8.404;2023-07-28T11:36:55;15.30;;;14.10;;
1410;SDS011;700;51.906;8.404;2023-07-28T11:41:56;13.50;;;12.40;;
1410;SDS011;700;51.906;8.404;2023-07-28T11:47:02;16.60;;;15.20;;
1410;SDS011;700;51.906;8.404;2023-07-28T11:52:05;13.27;;;12.17;;
1410;SDS011;700;51.906;8.404;2023-07-28T11:57:11;13.93;;;12.83;;
1410;SDS011;700;51.906;8.404;2023-07-28T12:02:13;15.80;;;14.27;;
1410;SDS011;700;51.906;8.404;2023-07-28T12:07:14;14.63;;;13.43;;
1410;SDS011;700;51.906;8.404;2023-07-28T12:12:19;13.43;;;12.33;;
1410;SDS011;700;51.906;8.404;2023-07-28T12:17:25;13.60;;;12.47;;
1410;SDS011;700;51.906;8.404;2023-07-28T12:22:27;15.10;;;13.73;;
1410;SDS011;700;51.906;8.404;2023-07-28T12:27:28;7.47;;;6.77;;
1410;SDS011;700;51.906;8.404;2023-07-28T12:32:29;6.77;;;6.17;;
1410;SDS011;700;51.906;8.404;2023-07-28T12:37:30;4.20;;;3.80;;
1410;SDS011;700;51.906;8.404;2023-07-28T12:42:33;4.80;;;4.40;;
1410;SDS011;700;51.906;8.404;2023-07-28T12:47:36;4.33;;;3.93;;
1410;SDS011;700;51.906;8.404;2023-07-28T12:52:37;4.27;;;3.87;;
1410;SDS011;700;51.906;8.404;2023-07-28T12:57:38;4.93;;;4.50;;
1410;SDS011;700;51.906;8.404;2023-07-28T13:02:42;5.00;;;4.50;;
1410;SDS011;700;51.906;8.404;2023-07-28T13:07:43;5.37;;;4.60;;
1410;SDS011;700;51.906;8.404;2023-07-28T13:12:44;5.30;;;4.53;;
1410;SDS011;700;51.906;8.404;2023-07-28T13:17:47;5.10;;;4.60;;
1410;SDS011;700;51.906;8.404;2023-07-28T13:22:50;5.80;;;5.30;;
1410;SDS011;700;51.906;8.404;2023-07-28T13:27:50;8.50;;;7.80;;
1410;SDS011;700;51.906;8.404;2023-07-28T13:32:51;5.50;;;5.10;;
1410;SDS011;700;51.906;8.404;2023-07-28T13:37:51;4.40;;;4.00;;
1410;SDS011;700;51.906;8.404;2023-07-28T13:42:54;5.93;;;4.30;;
1410;SDS011;700;51.906;8.404;2023-07-28T13:47:55;5.50;;;5.10;;
1410;SDS011;700;51.906;8.404;2023-07-28T13:52:58;4.70;;;4.30;;
1410;SDS011;700;51.906;8.404;2023-07-28T13:57:58;4.60;;;4.30;;
1410;SDS011;700;51.906;8.404;2023-07-28T14:02:59;4.17;;;3.87;;
1410;SDS011;700;51.906;8.404;2023-07-28T14:08:00;4.50;;;4.20;;
1410;SDS011;700;51.906;8.404;2023-07-28T14:13:00;4.33;;;3.93;;
1410;SDS011;700;51.906;8.404;2023-07-28T14:18:01;5.40;;;5.00;;
1410;SDS011;700;51.906;8.404;2023-07-28T14:23:20;5.03;;;4.63;;
1410;SDS011;700;51.906;8.404;2023-07-28T14:28:25;4.60;;;4.20;;
1410;SDS011;700;51.906;8.404;2023-07-28T14:33:26;4.90;;;4.50;;
1410;SDS011;700;51.906;8.404;2023-07-28T14:38:29;5.47;;;5.07;;
1410;SDS011;700;51.906;8.404;2023-07-28T14:43:29;4.20;;;3.90;;
1410;SDS011;700;51.906;8.404;2023-07-28T14:48:30;4.40;;;4.00;;
1410;SDS011;700;51.906;8.404;2023-07-28T14:53:33;4.67;;;4.20;;
1410;SDS011;700;51.906;8.404;2023-07-28T14:58:35;4.10;;;3.67;;
1410;SDS011;700;51.906;8.404;2023-07-28T15:03:38;3.93;;;3.63;;
1410;SDS011;700;51.906;8.404;2023-07-28T15:08:40;4.03;;;3.63;;
1410;SDS011;700;51.906;8.404;2023-07-28T15:13:42;3.77;;;3.47;;
1410;SDS011;700;51.906;8.404;2023-07-28T15:18:50;4.00;;;2.53;;
1410;SDS011;700;51.906;8.404;2023-07-28T15:23:55;6.17;;;3.60;;
1410;SDS011;700;51.906;8.404;2023-07-28T15:28:58;3.97;;;3.67;;
1410;SDS011;700;51.906;8.404;2023-07-28T15:34:03;3.67;;;3.37;;
1410;SDS011;700;51.906;8.404;2023-07-28T15:39:03;3.60;;;3.33;;
1410;SDS011;700;51.906;8.404;2023-07-28T15:44:06;4.53;;;4.23;;
1410;SDS011;700;51.906;8.404;2023-07-28T15:49:07;3.60;;;3.30;;
1410;SDS011;700;51.906;8.404;2023-07-28T15:54:10;3.10;;;2.80;;
1410;SDS011;700;51.906;8.404;2023-07-28T15:59:11;3.30;;;3.00;;
1410;SDS011;700;51.906;8.404;2023-07-28T16:04:11;2.57;;;2.37;;
1410;SDS011;700;51.906;8.404;2023-07-28T16:09:12;2.97;;;2.67;;
1410;SDS011;700;51.906;8.404;2023-07-28T16:14:13;3.20;;;2.60;;
1410;SDS011;700;51.906;8.404;2023-07-28T16:19:16;3.53;;;2.40;;
1410;SDS011;700;51.906;8.404;2023-07-28T16:24:17;2.50;;;2.27;;
1410;SDS011;700;51.906;8.404;2023-07-28T16:29:20;1.90;;;1.80;;
1410;SDS011;700;51.906;8.404;2023-07-28T16:34:23;2.40;;;2.20;;
1410;SDS011;700;51.906;8.404;2023-07-28T16:39:26;2.33;;;2.13;;
1410;SDS011;700;51.906;8.404;2023-07-28T16:44:26;2.63;;;2.17;;
1410;SDS011;700;51.906;8.404;2023-07-28T16:49:30;2.73;;;2.10;;
1410;SDS011;700;51.906;8.404;2023-07-28T16:54:31;2.30;;;2.10;;
1410;SDS011;700;51.906;8.404;2023-07-28T16:59:34;2.10;;;1.90;;
1410;SDS011;700;51.906;8.404;2023-07-28T17:04:37;1.63;;;1.40;;
1410;SDS011;700;51.906;8.404;2023-07-28T17:09:39;2.07;;;1.60;;
1410;SDS011;700;51.906;8.404;2023-07-28T17:14:40;2.23;;;1.93;;
1410;SDS011;700;51.906;8.404;2023-07-28T17:19:43;2.03;;;1.83;;
1410;SDS011;700;51.906;8.404;2023-07-28T17:24:44;2.10;;;1.90;;
1410;SDS011;700;51.906;8.404;2023-07-28T17:29:49;1.90;;;1.70;;
1410;SDS011;700;51.906;8.404;2023-07-28T17:34:51;2.67;;;1.87;;
1410;SDS011;700;51.906;8.404;2023-07-28T17:39:57;2.53;;;2.00;;
1410;SDS011;700;51.906;8.404;2023-07-28T17:44:57;1.83;;;1.73;;
1410;SDS011;700;51.906;8.404;2023-07-28T17:50:01;2.87;;;2.50;;
1410;SDS011;700;51.906;8.404;2023-07-28T17:55:03;2.43;;;1.77;;
1410;SDS011;700;51.906;8.404;2023-07-28T18:00:07;2.13;;;1.70;;
1410;SDS011;700;51.906;8.404;2023-07-28T18:05:11;3.50;;;1.60;;
1410;SDS011;700;51.906;8.404;2023-07-28T18:10:14;1.70;;;1.20;;
1410;SDS011;700;51.906;8.404;2023-07-28T18:15:14;1.80;;;1.50;;
1410;SDS011;700;51.906;8.404;2023-07-28T18:20:15;2.60;;;1.63;;
1410;SDS011;700;51.906;8.404;2023-07-28T18:25:15;1.50;;;1.20;;
1410;SDS011;700;51.906;8.404;2023-07-28T18:30:19;2.13;;;1.60;;
1410;SDS011;700;51.906;8.404;2023-07-28T18:35:19;1.90;;;1.40;;
1410;SDS011;700;51.906;8.404;2023-07-28T18:40:20;1.70;;;1.40;;
1410;SDS011;700;51.906;8.404;2023-07-28T18:45:23;1.80;;;1.43;;
1410;SDS011;700;51.906;8.404;2023-07-28T18:50:26;1.60;;;1.33;;
1410;SDS011;700;51.906;8.404;2023-07-28T18:55:29;1.87;;;1.50;;
1410;SDS011;700;51.906;8.404;2023-07-28T19:00:32;1.97;;;1.47;;
1410;SDS011;700;51.906;8.404;2023-07-28T19:05:34;2.10;;;1.73;;
1410;SDS011;700;51.906;8.404;2023-07-28T19:10:37;2.00;;;1.20;;
1410;SDS011;700;51.906;8.404;2023-07-28T19:15:37;1.90;;;1.30;;
1410;SDS011;700;51.906;8.404;2023-07-28T19:20:40;2.07;;;1.37;;
1410;SDS011;700;51.906;8.404;2023-07-28T19:25:41;2.23;;;1.20;;
1410;SDS011;700;51.906;8.404;2023-07-28T19:30:41;2.23;;;1.27;;
1410;SDS011;700;51.906;8.404;2023-07-28T19:35:45;1.93;;;1.00;;
1410;SDS011;700;51.906;8.404;2023-07-28T19:40:46;1.60;;;1.07;;
1410;SDS011;700;51.906;8.404;2023-07-28T19:45:49;1.93;;;1.40;;
1410;SDS011;700;51.906;8.404;2023-07-28T19:50:51;1.83;;;1.23;;
1410;SDS011;700;51.906;8.404;2023-07-28T19:55:52;4.23;;;1.60;;
1410;SDS011;700;51.906;8.404;2023-07-28T20:00:56;2.43;;;1.20;;
1410;SDS011;700;51.906;8.404;2023-07-28T20:05:58;1.63;;;1.03;;
1410;SDS011;700;51.906;8.404;2023-07-28T20:11:02;1.60;;;1.00;;
1410;SDS011;700;51.906;8.404;2023-07-28T20:16:07;1.90;;;1.47;;
1410;SDS011;700;51.906;8.404;2023-07-28T20:21:10;2.20;;;1.43;;
1410;SDS011;700;51.906;8.404;2023-07-28T20:26:11;1.90;;;1.23;;
1410;SDS011;700;51.906;8.404;2023-07-28T20:31:11;3.00;;;1.50;;
1410;SDS011;700;51.906;8.404;2023-07-28T20:36:14;1.80;;;1.37;;
1410;SDS011;700;51.906;8.404;2023-07-28T20:41:15;2.67;;;1.63;;
1410;SDS011;700;51.906;8.404;2023-07-28T20:46:17;4.90;;;2.23;;
1410;SDS011;700;51.906;8.404;2023-07-28T20:51:20;3.10;;;1.30;;
1410;SDS011;700;51.906;8.404;2023-07-28T20:56:20;2.00;;;1.73;;
1410;SDS011;700;51.906;8.404;2023-07-28T21:01:21;2.23;;;1.10;;
1410;SDS011;700;51.906;8.404;2023-07-28T21:06:27;1.80;;;1.53;;
1410;SDS011;700;51.906;8.404;2023-07-28T21:11:29;2.17;;;1.30;;
1410;SDS011;700;51.906;8.404;2023-07-28T21:16:32;3.77;;;1.70;;
1410;SDS011;700;51.906;8.404;2023-07-28T21:21:35;1.83;;;1.50;;
1410;SDS011;700;51.906;8.404;2023-07-28T21:26:35;2.00;;;1.50;;
1410;SDS011;700;51.906;8.404;2023-07-28T21:31:36;1.57;;;1.30;;
1410;SDS011;700;51.906;8.404;2023-07-28T21:36:39;2.30;;;1.63;;
1410;SDS011;700;51.906;8.404;2023-07-28T21:41:40;4.03;;;1.80;;
1410;SDS011;700;51.906;8.404;2023-07-28T21:46:40;2.47;;;1.70;;
1410;SDS011;700;51.906;8.404;2023-07-28T21:51:43;2.23;;;1.80;;
1410;SDS011;700;51.906;8.404;2023-07-28T21:56:44;2.63;;;1.80;;
1410;SDS011;700;51.906;8.404;2023-07-28T22:01:44;2.80;;;1.60;;
1410;SDS011;700;51.906;8.404;2023-07-28T22:06:47;2.00;;;1.70;;
1410;SDS011;700;51.906;8.404;2023-07-28T22:11:48;2.40;;;1.57;;
1410;SDS011;700;51.906;8.404;2023-07-28T22:16:48;2.90;;;2.07;;
1410;SDS011;700;51.906;8.404;2023-07-28T22:21:49;4.70;;;1.90;;
1410;SDS011;700;51.906;8.404;2023-07-28T22:26:49;4.60;;;1.93;;
1410;SDS011;700;51.906;8.404;2023-07-28T22:31:50;2.77;;;1.83;;
1410;SDS011;700;51.906;8.404;2023-07-28T22:36:51;2.47;;;1.80;;
1410;SDS011;700;51.906;8.404;2023-07-28T22:41:51;6.33;;;1.97;;
1410;SDS011;700;51.906;8.404;2023-07-28T22:46:57;2.50;;;2.07;;
1410;SDS011;700;51.906;8.404;2023-07-28T22:51:58;2.00;;;1.53;;
1410;SDS011;700;51.906;8.404;2023-07-28T22:56:58;2.33;;;1.83;;
1410;SDS011;700;51.906;8.404;2023-07-28T23:01:59;2.70;;;2.50;;
1410;SDS011;700;51.906;8.404;2023-07-28T23:06:59;2.10;;;1.80;;
1410;SDS011;700;51.906;8.404;2023-07-28T23:12:02;2.90;;;2.20;;
1410;SDS011;700;51.906;8.404;2023-07-28T23:17:06;5.67;;;2.50;;
1410;SDS011;700;51.906;8.404;2023-07-28T23:22:14;2.43;;;2.23;;
1410;SDS011;700;51.906;8.404;2023-07-28T23:27:14;2.20;;;2.00;;
1410;SDS011;700;51.906;8.404;2023-07-28T23:32:15;2.37;;;2.00;;
1410;SDS011;700;51.906;8.404;2023-07-28T23:37:16;2.20;;;2.00;;
1410;SDS011;700;51.906;8.404;2023-07-28T23:42:17;3.30;;;2.77;;
1410;SDS011;700;51.906;8.404;2023-07-28T23:47:18;2.63;;;2.00;;
1410;SDS011;700;51.906;8.404;2023-07-28T23:52:21;2.93;;;2.53;;
1410;SDS011;700;51.906;8.404;2023-07-28T23:57:26;4.27;;;2.63;;
